Time;durP1;ratioP1;P1;durP2;ratioP2;P2;SDS_P1;SDS_P2;PMS_P1;PMS_P2;Temp;Humidity;BMP_temperature;BMP_pressure;BME280_temperature;BME280_humidity;BME280_pressure;Samples;Min_cycle;Max_cycle;Signal;HPM_P1;HPM_P2
2023/03/01 00:00:39;;;;;;;3.40;1.10;;;4.50;29.00;;;;;;5059755;28;20537;-68
2023/03/01 00:03:05;;;;;;;3.70;1.40;;;4.50;29.00;;;;;;5060742;28;20228;-67
2023/03/01 00:05:31;;;;;;;3.67;1.27;;;4.60;29.10;;;;;;5073149;28;20433;-68
2023/03/01 00:07:57;;;;;;;3.70;1.40;;;4.60;29.00;;;;;;5062444;28;20441;-68
2023/03/01 00:10:25;;;;;;;3.90;1.40;;;4.70;29.10;;;;;;5053162;28;20218;-68
2023/03/01 00:12:51;;;;;;;4.55;1.30;;;4.80;28.80;;;;;;5033792;28;20768;-68
2023/03/01 00:15:17;;;;;;;4.20;1.83;;;4.80;28.60;;;;;;5068009;28;20726;-68
2023/03/01 00:17:42;;;;;;;3.70;1.30;;;4.70;28.90;;;;;;5069779;28;20599;-68
2023/03/01 00:20:10;;;;;;;3.50;1.20;;;4.60;29.70;;;;;;5049327;28;20776;-68
2023/03/01 00:22:36;;;;;;;3.58;1.35;;;4.50;29.00;;;;;;5050915;28;20318;-68
2023/03/01 00:25:02;;;;;;;3.45;1.10;;;4.50;29.00;;;;;;5061841;28;20200;-68
2023/03/01 00:27:27;;;;;;;4.00;1.60;;;4.20;29.60;;;;;;5068912;28;20183;-68
2023/03/01 00:29:53;;;;;;;3.40;1.00;;;4.30;29.50;;;;;;5056061;28;20640;-68
2023/03/01 00:32:18;;;;;;;3.97;1.50;;;4.40;28.90;;;;;;5068155;28;20179;-68
2023/03/01 00:34:54;;;;;;;4.07;1.63;;;4.40;29.50;;;;;;5067390;28;20303;-68
2023/03/01 00:37:23;;;;;;;3.70;1.40;;;4.30;29.70;;;;;;5068700;28;20193;-68
2023/03/01 00:39:49;;;;;;;10.32;3.30;;;4.20;29.20;;;;;;5061112;28;20286;-68
2023/03/01 00:42:15;;;;;;;4.37;1.83;;;4.30;29.30;;;;;;5067272;28;20185;-67
2023/03/01 00:44:41;;;;;;;3.92;1.52;;;4.00;29.80;;;;;;5070818;28;20436;-68
2023/03/01 00:47:07;;;;;;;6.80;3.67;;;3.90;30.60;;;;;;5074830;28;20179;-68
2023/03/01 00:49:32;;;;;;;3.47;1.20;;;4.00;30.10;;;;;;5065715;28;20192;-67
2023/03/01 00:51:58;;;;;;;4.03;1.73;;;4.10;29.90;;;;;;5064068;28;20219;-68
2023/03/01 00:54:23;;;;;;;4.30;1.63;;;3.90;30.20;;;;;;5101221;22;20339;-66
2023/03/01 00:56:49;;;;;;;4.73;1.67;;;3.90;30.30;;;;;;5035223;28;20186;-66
2023/03/01 00:59:14;;;;;;;3.67;1.23;;;4.10;29.90;;;;;;5033624;28;20247;-67
2023/03/01 01:01:40;;;;;;;3.60;1.30;;;4.00;30.00;;;;;;5022906;28;20192;-66
2023/03/01 01:04:09;;;;;;;3.60;1.20;;;4.00;29.90;;;;;;5034161;28;20607;-66
2023/03/01 01:06:43;;;;;;;3.80;1.40;;;4.10;29.60;;;;;;5026240;28;20176;-68
2023/03/01 01:09:21;;;;;;;3.60;1.13;;;3.90;30.00;;;;;;5028249;28;20647;-67
2023/03/01 01:11:50;;;;;;;5.35;1.85;;;3.90;30.00;;;;;;5045142;28;20287;-66
2023/03/01 01:14:17;;;;;;;3.60;1.10;;;4.00;29.60;;;;;;5034014;28;20200;-67
2023/03/01 01:16:43;;;;;;;5.65;2.05;;;4.10;29.40;;;;;;5032622;28;20180;-66
2023/03/01 01:19:13;;;;;;;4.10;1.67;;;4.00;29.70;;;;;;5026735;28;20718;-69
2023/03/01 01:21:39;;;;;;;3.70;1.10;;;3.90;29.80;;;;;;5027586;28;20184;-66
2023/03/01 01:24:05;;;;;;;5.60;1.73;;;3.90;30.00;;;;;;5033599;28;20608;-66
2023/03/01 01:26:33;;;;;;;3.80;1.10;;;4.00;30.00;;;;;;5033921;28;20423;-66
2023/03/01 01:29:00;;;;;;;5.80;1.80;;;4.10;29.90;;;;;;5033943;28;20195;-68
2023/03/01 01:31:26;;;;;;;3.97;1.35;;;4.00;29.80;;;;;;5030863;28;20203;-70
2023/03/01 01:33:53;;;;;;;7.03;1.67;;;4.00;30.80;;;;;;5032505;28;20279;-67
2023/03/01 01:36:19;;;;;;;3.88;1.20;;;4.10;30.00;;;;;;5024959;28;20189;-68
2023/03/01 01:38:45;;;;;;;4.40;1.60;;;4.30;30.40;;;;;;5033681;28;20196;-66
2023/03/01 01:41:12;;;;;;;3.83;1.10;;;4.30;29.80;;;;;;5032913;28;20267;-67
2023/03/01 01:44:10;;;;;;;4.00;1.10;;;3.90;30.80;;;;;;5016496;28;20438;-69
2023/03/01 01:46:38;;;;;;;5.25;1.40;;;3.90;31.10;;;;;;5031583;28;20192;-66
2023/03/01 01:49:13;;;;;;;4.55;1.55;;;4.20;30.60;;;;;;5033670;28;20187;-67
2023/03/01 01:51:42;;;;;;;5.53;2.05;;;4.20;29.60;;;;;;5033091;28;20196;-66
2023/03/01 01:54:23;;;;;;;3.90;1.20;;;3.90;30.20;;;;;;5020056;28;20221;-66
2023/03/01 01:56:57;;;;;;;3.80;1.10;;;4.00;30.40;;;;;;5032780;28;20192;-66
2023/03/01 01:59:24;;;;;;;3.90;1.13;;;4.00;30.40;;;;;;5033107;28;20280;-67
2023/03/01 02:01:52;;;;;;;3.90;1.20;;;4.10;30.20;;;;;;5027673;28;20187;-70
2023/03/01 02:04:18;;;;;;;4.20;1.38;;;4.10;29.80;;;;;;5024226;28;20396;-66
2023/03/01 02:07:16;;;;;;;6.67;2.07;;;3.80;30.50;;;;;;5033261;28;20184;-66
2023/03/01 02:09:45;;;;;;;3.80;1.10;;;3.70;31.20;;;;;;5032799;28;20216;-66
2023/03/01 02:12:12;;;;;;;3.80;1.20;;;3.90;30.80;;;;;;5033535;28;20647;-67
2023/03/01 02:14:38;;;;;;;4.47;1.77;;;4.00;30.60;;;;;;5020084;28;20205;-67
2023/03/01 02:17:03;;;;;;;4.20;1.83;;;4.20;30.00;;;;;;5023308;28;20189;-67
2023/03/01 02:19:41;;;;;;;3.80;1.40;;;4.30;30.00;;;;;;5031044;28;20565;-67
2023/03/01 02:22:13;;;;;;;4.57;2.00;;;4.30;29.70;;;;;;5024799;28;20204;-68
2023/03/01 02:25:19;;;;;;;3.60;1.20;;;4.20;29.80;;;;;;5018541;28;20197;-70
2023/03/01 02:27:56;;;;;;;3.80;1.42;;;4.20;30.20;;;;;;5029609;28;20652;-66
2023/03/01 02:30:23;;;;;;;3.60;1.10;;;4.30;29.90;;;;;;5023602;28;20235;-67
2023/03/01 02:32:49;;;;;;;3.53;1.10;;;4.40;30.00;;;;;;5032623;28;20184;-66
2023/03/01 02:35:17;;;;;;;4.10;1.65;;;4.40;30.70;;;;;;5030599;28;20228;-70
2023/03/01 02:37:44;;;;;;;3.85;1.30;;;4.60;29.50;;;;;;5027133;28;20185;-66
2023/03/01 02:40:16;;;;;;;6.82;2.75;;;4.30;30.00;;;;;;5032460;28;20191;-66
2023/03/01 02:42:54;;;;;;;3.50;1.25;;;4.10;30.20;;;;;;5032523;28;20246;-67
2023/03/01 02:45:19;;;;;;;4.35;1.80;;;4.20;30.20;;;;;;5032226;28;20188;-69
2023/03/01 02:47:45;;;;;;;3.40;1.20;;;4.60;29.90;;;;;;5026332;28;20177;-70
2023/03/01 02:50:50;;;;;;;3.50;1.30;;;4.60;29.50;;;;;;5028851;28;20419;-66
2023/03/01 02:53:48;;;;;;;3.40;1.45;;;4.80;29.20;;;;;;5003975;28;20204;-69
2023/03/01 02:56:13;;;;;;;3.60;1.30;;;4.40;30.00;;;;;;5008569;28;20200;-70
2023/03/01 02:58:45;;;;;;;3.97;1.40;;;4.60;29.90;;;;;;5022457;28;20544;-66
2023/03/01 03:01:15;;;;;;;4.40;1.75;;;4.90;29.30;;;;;;5031973;28;20172;-66
2023/03/01 03:03:41;;;;;;;5.55;2.50;;;4.80;29.20;;;;;;5032158;28;20582;-66
2023/03/01 03:06:07;;;;;;;3.55;1.38;;;4.40;29.80;;;;;;5021538;28;20635;-66
2023/03/01 03:08:33;;;;;;;3.40;1.20;;;4.60;29.40;;;;;;5030113;28;20259;-66
2023/03/01 03:10:58;;;;;;;3.37;1.20;;;4.70;29.50;;;;;;5026808;28;20690;-66
2023/03/01 03:13:28;;;;;;;3.97;1.80;;;4.70;29.60;;;;;;5029347;28;20275;-70
2023/03/01 03:15:55;;;;;;;5.50;2.65;;;4.60;29.60;;;;;;5015563;28;20680;-66
2023/03/01 03:18:21;;;;;;;3.55;1.33;;;4.70;29.30;;;;;;5029667;28;20222;-67
2023/03/01 03:20:52;;;;;;;3.40;1.10;;;4.80;30.10;;;;;;5025651;28;20236;-66
2023/03/01 03:23:18;;;;;;;3.40;1.20;;;4.90;29.20;;;;;;5028169;28;20663;-66
2023/03/01 03:25:44;;;;;;;4.40;1.80;;;4.90;29.30;;;;;;5029512;28;20357;-66
2023/03/01 03:28:10;;;;;;;3.40;1.30;;;4.70;29.60;;;;;;5031777;28;20239;-66
2023/03/01 03:30:38;;;;;;;3.40;1.35;;;3.90;31.10;;;;;;5028012;28;20231;-66
2023/03/01 03:33:05;;;;;;;3.60;1.60;;;4.10;31.00;;;;;;5021025;28;20196;-67
2023/03/01 03:35:37;;;;;;;4.10;1.98;;;4.20;31.00;;;;;;5031370;28;20235;-66
2023/03/01 03:38:09;;;;;;;3.20;1.10;;;4.20;30.70;;;;;;5031693;28;20569;-67
2023/03/01 03:40:41;;;;;;;3.40;1.52;;;4.20;30.70;;;;;;5031562;28;20153;-66
2023/03/01 03:43:21;;;;;;;6.07;2.47;;;4.50;30.60;;;;;;5027599;28;20560;-69
2023/03/01 03:45:49;;;;;;;3.20;1.15;;;4.30;30.40;;;;;;5031526;28;20239;-68
2023/03/01 03:48:16;;;;;;;4.38;1.65;;;4.20;30.30;;;;;;5031363;28;20184;-67
2023/03/01 03:50:41;;;;;;;3.83;1.58;;;4.30;30.50;;;;;;5030241;28;20208;-67
2023/03/01 03:53:10;;;;;;;3.50;1.40;;;4.40;30.70;;;;;;5028624;28;20713;-70
2023/03/01 03:55:38;;;;;;;4.15;1.83;;;4.30;30.50;;;;;;5024678;28;20274;-67
2023/03/01 03:58:09;;;;;;;3.40;1.27;;;4.30;30.50;;;;;;5030498;28;20208;-66
2023/03/01 04:00:45;;;;;;;4.22;1.90;;;4.40;30.20;;;;;;5023430;28;20691;-66
2023/03/01 04:03:13;;;;;;;3.40;1.20;;;4.50;30.00;;;;;;5029783;28;20192;-67
2023/03/01 04:05:40;;;;;;;3.38;1.10;;;4.70;29.80;;;;;;5029950;28;20287;-66
2023/03/01 04:08:09;;;;;;;3.90;1.40;;;4.50;30.00;;;;;;5031184;28;20177;-69
2023/03/01 04:10:43;;;;;;;3.35;1.10;;;4.50;29.80;;;;;;5023097;28;20188;-66
2023/03/01 04:13:13;;;;;;;3.40;1.10;;;4.40;30.00;;;;;;5029616;28;20190;-66
2023/03/01 04:15:39;;;;;;;3.60;1.33;;;4.40;30.00;;;;;;5025980;28;20200;-68
2023/03/01 04:18:05;;;;;;;3.38;1.10;;;4.50;31.10;;;;;;5034086;28;20526;-67
2023/03/01 04:20:34;;;;;;;3.50;1.40;;;4.70;29.90;;;;;;5035420;28;20184;-67
2023/03/01 04:23:10;;;;;;;4.03;1.55;;;4.90;29.60;;;;;;5034700;28;20547;-69
2023/03/01 04:25:42;;;;;;;5.55;2.42;;;4.90;29.90;;;;;;5025783;28;20696;-67
2023/03/01 04:28:09;;;;;;;3.53;1.30;;;4.60;30.00;;;;;;5034532;28;20189;-66
2023/03/01 04:30:36;;;;;;;8.25;2.70;;;4.80;29.60;;;;;;5035196;28;20184;-67
2023/03/01 04:33:03;;;;;;;3.30;1.10;;;5.00;29.90;;;;;;5034887;28;20183;-66
2023/03/01 04:35:30;;;;;;;4.78;1.85;;;5.10;29.40;;;;;;5033356;28;20205;-67
2023/03/01 04:37:56;;;;;;;3.40;1.30;;;4.60;30.00;;;;;;5034260;28;20196;-66
2023/03/01 04:40:21;;;;;;;8.00;2.50;;;4.80;30.00;;;;;;5035145;28;20172;-66
2023/03/01 04:42:47;;;;;;;3.87;1.50;;;4.20;30.70;;;;;;5025940;28;20183;-67
2023/03/01 04:45:13;;;;;;;3.30;1.30;;;4.00;31.80;;;;;;5033984;28;20200;-66
2023/03/01 04:47:44;;;;;;;4.50;2.00;;;3.90;31.70;;;;;;5027320;28;20184;-69
2023/03/01 04:50:11;;;;;;;3.30;1.25;;;4.20;31.70;;;;;;5034912;28;20189;-66
2023/03/01 04:52:37;;;;;;;3.80;1.52;;;4.50;31.00;;;;;;5023458;28;20242;-69
2023/03/01 04:55:03;;;;;;;3.50;1.20;;;4.70;30.00;;;;;;5034699;28;20224;-66
2023/03/01 04:57:29;;;;;;;3.25;1.20;;;5.00;29.30;;;;;;5034708;28;20197;-68
2023/03/01 04:59:55;;;;;;;3.50;1.50;;;5.00;29.30;;;;;;5035366;28;20201;-68
2023/03/01 05:02:20;;;;;;;5.33;1.70;;;5.00;29.40;;;;;;5036562;28;20550;-67
2023/03/01 05:04:46;;;;;;;4.53;2.40;;;4.60;30.40;;;;;;5036298;28;20201;-65
2023/03/01 05:07:12;;;;;;;4.93;2.03;;;4.60;30.10;;;;;;5038036;28;20231;-66
2023/03/01 05:09:38;;;;;;;3.30;1.30;;;4.80;29.90;;;;;;5037761;28;20215;-66
2023/03/01 05:12:04;;;;;;;3.90;1.70;;;4.90;29.40;;;;;;5036771;28;20193;-66
2023/03/01 05:14:30;;;;;;;3.47;1.57;;;4.90;29.90;;;;;;5031083;28;20477;-66
2023/03/01 05:17:03;;;;;;;3.13;1.17;;;4.80;30.00;;;;;;5037467;28;20450;-67
2023/03/01 05:19:30;;;;;;;3.25;1.30;;;4.60;30.20;;;;;;5025840;28;20212;-66
2023/03/01 05:22:05;;;;;;;3.20;1.20;;;4.60;30.60;;;;;;5035176;28;20176;-66
2023/03/01 05:24:34;;;;;;;4.28;1.48;;;4.70;30.00;;;;;;5027278;28;20204;-69
2023/03/01 05:27:01;;;;;;;4.70;2.20;;;4.60;30.00;;;;;;5021231;28;20185;-69
2023/03/01 05:29:28;;;;;;;4.80;2.55;;;4.60;30.40;;;;;;5032597;28;20176;-66
2023/03/01 05:31:56;;;;;;;3.30;1.30;;;4.70;30.50;;;;;;5033910;28;20227;-68
2023/03/01 05:34:30;;;;;;;3.40;1.40;;;4.80;30.10;;;;;;5020049;28;20212;-66
2023/03/01 05:36:56;;;;;;;4.45;1.50;;;4.90;29.90;;;;;;5031804;28;20643;-68
2023/03/01 05:39:27;;;;;;;3.60;1.35;;;4.70;30.20;;;;;;5039488;28;20217;-68
2023/03/01 05:41:58;;;;;;;4.07;1.80;;;4.50;31.10;;;;;;5033732;28;20206;-66
2023/03/01 05:44:25;;;;;;;3.30;1.20;;;4.40;31.30;;;;;;5031468;28;20208;-66
2023/03/01 05:46:51;;;;;;;4.30;1.70;;;4.40;31.10;;;;;;5022649;28;20204;-66
2023/03/01 05:49:17;;;;;;;6.82;2.10;;;4.60;30.90;;;;;;5031573;28;20200;-66
2023/03/01 05:51:48;;;;;;;4.82;2.00;;;4.80;31.30;;;;;;5013779;28;20247;-66
2023/03/01 05:54:13;;;;;;;6.10;2.67;;;4.50;30.80;;;;;;5018978;28;20303;-67
2023/03/01 05:56:39;;;;;;;3.37;1.30;;;4.80;30.70;;;;;;5030634;28;20275;-67
2023/03/01 05:59:05;;;;;;;13.20;3.37;;;5.00;30.00;;;;;;5028578;28;20208;-68
2023/03/01 06:01:32;;;;;;;3.37;1.30;;;4.80;30.50;;;;;;5024220;28;20189;-66
2023/03/01 06:03:58;;;;;;;4.47;2.20;;;4.70;30.80;;;;;;5022078;28;20442;-67
2023/03/01 06:06:24;;;;;;;3.40;1.30;;;4.90;30.00;;;;;;5024718;28;20188;-67
2023/03/01 06:08:51;;;;;;;3.70;1.70;;;4.80;30.30;;;;;;5023530;28;20184;-69
2023/03/01 06:11:16;;;;;;;3.85;1.45;;;4.60;30.80;;;;;;5028777;28;20216;-70
2023/03/01 06:13:43;;;;;;;3.77;1.40;;;4.80;31.20;;;;;;5025395;28;20231;-66
2023/03/01 06:16:09;;;;;;;3.30;1.20;;;4.80;31.30;;;;;;5028810;28;20172;-69
2023/03/01 06:18:36;;;;;;;3.55;1.50;;;5.10;30.00;;;;;;5026007;28;20292;-68
2023/03/01 06:21:01;;;;;;;3.40;1.27;;;5.00;30.00;;;;;;5037924;28;20180;-66
2023/03/01 06:23:27;;;;;;;5.10;2.43;;;4.90;30.20;;;;;;5017110;28;20935;-67
2023/03/01 06:25:53;;;;;;;3.23;1.30;;;4.90;30.40;;;;;;5024136;28;20743;-71
2023/03/01 06:28:18;;;;;;;3.60;1.70;;;5.00;30.40;;;;;;5028798;28;20180;-67
2023/03/01 06:30:44;;;;;;;3.87;1.93;;;4.90;30.60;;;;;;5030328;28;20234;-67
2023/03/01 06:33:10;;;;;;;3.87;1.50;;;5.20;30.00;;;;;;5032444;28;20259;-67
2023/03/01 06:35:35;;;;;;;3.00;1.20;;;5.30;29.80;;;;;;5026767;28;20212;-68
2023/03/01 06:38:03;;;;;;;3.10;1.23;;;5.40;29.60;;;;;;5024244;28;20181;-69
2023/03/01 06:40:30;;;;;;;3.00;1.10;;;5.50;29.40;;;;;;5020111;28;20185;-66
2023/03/01 06:42:57;;;;;;;4.78;2.08;;;5.60;29.40;;;;;;5026813;28;20169;-66
2023/03/01 06:45:23;;;;;;;3.00;1.40;;;5.30;29.50;;;;;;5032396;28;20192;-71
2023/03/01 06:47:48;;;;;;;3.27;1.40;;;5.20;29.50;;;;;;5021675;28;20196;-70
2023/03/01 06:50:15;;;;;;;3.20;1.50;;;5.10;29.90;;;;;;5025289;28;20450;-66
2023/03/01 06:52:41;;;;;;;7.35;2.63;;;5.60;30.10;;;;;;5025906;28;20187;-71
2023/03/01 06:55:07;;;;;;;3.60;1.53;;;4.80;30.20;;;;;;5023023;28;20224;-67
2023/03/01 06:57:33;;;;;;;3.70;1.73;;;4.80;30.10;;;;;;5024371;28;20185;-67
2023/03/01 06:59:58;;;;;;;3.73;1.93;;;4.80;30.40;;;;;;5060922;22;20226;-67
2023/03/01 07:02:24;;;;;;;3.40;1.30;;;4.90;30.30;;;;;;5065201;28;21452;-68
2023/03/01 07:04:51;;;;;;;3.60;1.43;;;5.10;29.90;;;;;;5069911;28;20260;-71
2023/03/01 07:07:17;;;;;;;3.28;1.20;;;5.30;29.50;;;;;;5071758;28;20183;-68
2023/03/01 07:09:48;;;;;;;7.10;3.25;;;5.40;29.60;;;;;;5069176;28;20204;-67
2023/03/01 07:12:13;;;;;;;4.03;1.73;;;5.30;29.50;;;;;;5070293;28;20650;-67
2023/03/01 07:14:39;;;;;;;3.30;1.30;;;5.30;29.60;;;;;;5070033;28;20197;-67
2023/03/01 07:17:04;;;;;;;3.37;1.30;;;5.30;29.50;;;;;;5062369;28;20660;-68
2023/03/01 07:19:30;;;;;;;3.50;1.40;;;5.20;29.50;;;;;;5071592;28;20207;-67
2023/03/01 07:21:56;;;;;;;4.00;1.93;;;5.30;29.60;;;;;;5071621;28;20637;-66
2023/03/01 07:24:22;;;;;;;3.95;1.73;;;5.40;29.60;;;;;;5067468;28;20175;-69
2023/03/01 07:26:51;;;;;;;3.40;1.40;;;5.30;29.50;;;;;;5070566;28;20563;-66
2023/03/01 07:29:17;;;;;;;3.10;1.10;;;5.30;29.50;;;;;;5069594;28;20175;-69
2023/03/01 07:31:43;;;;;;;3.10;1.10;;;5.20;29.40;;;;;;5069451;28;20207;-66
2023/03/01 07:34:10;;;;;;;3.28;1.60;;;4.70;30.80;;;;;;5070982;28;20250;-67
2023/03/01 07:36:36;;;;;;;3.30;1.42;;;4.90;30.50;;;;;;5069096;28;20194;-66
2023/03/01 07:39:02;;;;;;;3.30;1.40;;;5.20;29.80;;;;;;5069366;28;20586;-73
2023/03/01 07:41:28;;;;;;;3.55;1.55;;;4.60;30.90;;;;;;5069699;28;20540;-72
2023/03/01 07:43:54;;;;;;;3.30;1.27;;;4.70;31.00;;;;;;5071099;28;20728;-72
2023/03/01 07:46:20;;;;;;;3.20;1.20;;;4.50;31.70;;;;;;5072684;28;21053;-72
2023/03/01 07:48:46;;;;;;;3.40;1.40;;;4.20;32.20;;;;;;5071240;28;20237;-72
2023/03/01 07:51:12;;;;;;;4.53;2.00;;;4.10;32.40;;;;;;5071577;28;20202;-74
2023/03/01 07:53:37;;;;;;;3.30;1.40;;;4.20;32.80;;;;;;5073942;28;20436;-71
2023/03/01 07:56:07;;;;;;;4.70;1.97;;;4.10;32.50;;;;;;5068199;28;20186;-71
2023/03/01 07:58:37;;;;;;;5.03;1.83;;;4.20;32.20;;;;;;5066179;28;20637;-72
2023/03/01 08:01:04;;;;;;;3.10;1.10;;;4.40;31.90;;;;;;5061608;28;20297;-71
2023/03/01 08:03:30;;;;;;;3.20;1.30;;;4.80;31.40;;;;;;5070793;28;20600;-72
2023/03/01 08:05:56;;;;;;;5.33;2.17;;;5.10;30.20;;;;;;5069727;28;20207;-73
2023/03/01 08:08:21;;;;;;;3.10;1.30;;;5.40;29.60;;;;;;5069349;28;20519;-70
2023/03/01 08:10:47;;;;;;;2.97;1.23;;;5.60;29.70;;;;;;5069011;28;20219;-72
2023/03/01 08:13:12;;;;;;;3.83;1.73;;;5.70;29.40;;;;;;5070711;28;20175;-71
2023/03/01 08:15:38;;;;;;;2.80;1.20;;;5.70;29.20;;;;;;5071298;28;20205;-72
2023/03/01 08:18:03;;;;;;;4.10;2.30;;;5.60;29.70;;;;;;5066156;28;20178;-71
2023/03/01 08:20:29;;;;;;;2.87;1.30;;;5.70;29.80;;;;;;5064027;28;20203;-72
2023/03/01 08:22:54;;;;;;;3.23;1.80;;;5.80;29.20;;;;;;5063307;28;20248;-72
2023/03/01 08:25:20;;;;;;;2.70;1.20;;;5.80;29.50;;;;;;5069078;28;20187;-71
2023/03/01 08:27:46;;;;;;;3.67;2.13;;;6.00;28.90;;;;;;5070841;28;20202;-72
2023/03/01 08:30:12;;;;;;;2.93;1.53;;;5.90;28.60;;;;;;5063008;28;20232;-70
2023/03/01 08:32:39;;;;;;;3.22;1.73;;;5.40;29.60;;;;;;5064956;28;20234;-71
2023/03/01 08:35:05;;;;;;;3.35;1.48;;;5.40;29.60;;;;;;5070765;28;20215;-69
2023/03/01 08:37:33;;;;;;;3.10;1.65;;;5.50;29.70;;;;;;5070841;28;20225;-69
2023/03/01 08:39:59;;;;;;;2.60;1.10;;;5.90;29.20;;;;;;5069942;28;20207;-69
2023/03/01 08:42:25;;;;;;;2.80;1.40;;;6.10;28.80;;;;;;5066630;28;20179;-70
2023/03/01 08:44:51;;;;;;;2.73;1.30;;;5.90;29.40;;;;;;5063759;28;20186;-68
2023/03/01 08:47:16;;;;;;;3.37;1.50;;;5.90;28.90;;;;;;5070610;28;20459;-68
2023/03/01 08:49:42;;;;;;;2.60;1.30;;;6.00;29.20;;;;;;5070760;28;20195;-69
2023/03/01 08:52:08;;;;;;;3.67;1.70;;;6.10;29.70;;;;;;5069146;28;20599;-69
2023/03/01 08:54:33;;;;;;;11.90;1.90;;;6.20;28.50;;;;;;5068620;28;20432;-69
2023/03/01 08:57:02;;;;;;;3.63;1.57;;;6.30;29.10;;;;;;5069628;28;20321;-68
2023/03/01 08:59:29;;;;;;;2.60;1.30;;;6.40;27.90;;;;;;5070141;28;20234;-68
2023/03/01 09:01:54;;;;;;;3.97;2.17;;;6.40;28.40;;;;;;5070533;28;20171;-69
2023/03/01 09:04:20;;;;;;;2.60;1.30;;;6.70;28.10;;;;;;5066079;28;20533;-68
2023/03/01 09:06:46;;;;;;;3.33;1.93;;;6.70;27.90;;;;;;5070864;28;20186;-68
2023/03/01 09:09:16;;;;;;;3.03;1.27;;;6.70;27.70;;;;;;5073754;28;20287;-68
2023/03/01 09:11:43;;;;;;;3.15;1.73;;;6.40;29.00;;;;;;5071638;28;20257;-68
2023/03/01 09:14:09;;;;;;;3.03;1.58;;;6.60;28.10;;;;;;5071724;28;20183;-68
2023/03/01 09:16:37;;;;;;;2.80;1.50;;;6.70;28.10;;;;;;5069360;28;20198;-68
2023/03/01 09:19:04;;;;;;;2.50;1.10;;;7.00;27.30;;;;;;5073608;28;20568;-69
2023/03/01 09:21:29;;;;;;;2.97;1.52;;;6.70;27.90;;;;;;5073612;28;20217;-69
2023/03/01 09:23:57;;;;;;;2.67;1.47;;;6.20;28.40;;;;;;5073300;28;20175;-69
2023/03/01 09:26:23;;;;;;;2.90;1.50;;;6.40;28.30;;;;;;5067881;28;20179;-69
2023/03/01 09:28:51;;;;;;;2.50;1.10;;;7.00;27.90;;;;;;5073343;28;20550;-70
2023/03/01 09:31:19;;;;;;;2.70;1.40;;;6.70;27.70;;;;;;5071809;28;20218;-69
2023/03/01 09:33:47;;;;;;;2.60;1.40;;;6.90;27.30;;;;;;5073228;28;20175;-71
2023/03/01 09:36:16;;;;;;;2.90;1.50;;;7.30;26.80;;;;;;5068502;28;20180;-71
2023/03/01 09:38:42;;;;;;;2.60;1.30;;;7.20;26.90;;;;;;5071585;28;20286;-70
2023/03/01 09:41:27;;;;;;;3.38;2.15;;;7.20;27.00;;;;;;5073102;28;20195;-71
2023/03/01 09:43:59;;;;;;;2.58;1.20;;;7.10;27.90;;;;;;5073090;28;20156;-71
2023/03/01 09:46:26;;;;;;;3.35;1.50;;;6.80;27.40;;;;;;5072175;28;20545;-71
2023/03/01 09:48:56;;;;;;;2.70;1.40;;;7.40;27.60;;;;;;5068325;28;20206;-68
2023/03/01 09:51:34;;;;;;;2.80;1.40;;;7.60;27.20;;;;;;5070175;28;20207;-71
2023/03/01 09:54:04;;;;;;;2.70;1.38;;;7.20;26.40;;;;;;5073792;28;20584;-69
2023/03/01 09:56:39;;;;;;;2.60;1.30;;;7.20;26.90;;;;;;5071790;28;20229;-71
2023/03/01 09:59:13;;;;;;;2.70;1.30;;;7.90;26.30;;;;;;5075432;28;20210;-69
2023/03/01 10:02:16;;;;;;;2.50;1.20;;;7.40;26.20;;;;;;5067881;28;20245;-69
2023/03/01 10:04:49;;;;;;;3.03;1.38;;;7.20;26.20;;;;;;5070118;28;20183;-71
2023/03/01 10:07:20;;;;;;;2.40;1.38;;;7.50;26.50;;;;;;5073080;28;20203;-69
2023/03/01 10:09:47;;;;;;;2.72;1.42;;;8.00;25.20;;;;;;5069087;28;20664;-69
2023/03/01 10:12:17;;;;;;;4.63;2.30;;;7.80;25.50;;;;;;5064068;28;20186;-68
2023/03/01 10:15:05;;;;;;;2.75;1.63;;;7.90;25.60;;;;;;5068532;28;20205;-69
2023/03/01 10:17:35;;;;;;;2.47;1.30;;;8.00;25.50;;;;;;5071844;28;20263;-69
2023/03/01 10:20:23;;;;;;;2.50;1.42;;;7.50;25.70;;;;;;5072998;28;20211;-69
2023/03/01 10:22:52;;;;;;;2.83;1.67;;;7.90;25.70;;;;;;5069257;28;20207;-67
2023/03/01 10:25:42;;;;;;;2.30;1.20;;;7.90;25.80;;;;;;5072956;28;20197;-68
2023/03/01 10:28:25;;;;;;;2.72;1.63;;;8.00;25.40;;;;;;5070886;28;20183;-69
2023/03/01 10:30:51;;;;;;;3.13;1.55;;;8.40;24.80;;;;;;5053121;28;20200;-69
2023/03/01 10:33:39;;;;;;;2.30;1.40;;;8.70;24.50;;;;;;5066365;28;20175;-69
2023/03/01 10:36:05;;;;;;;4.45;1.77;;;8.70;23.70;;;;;;5068100;28;20179;-69
2023/03/01 10:38:47;;;;;;;3.33;2.30;;;9.00;23.50;;;;;;5072665;28;20191;-69
2023/03/01 10:41:12;;;;;;;2.30;1.33;;;9.00;23.50;;;;;;5070594;28;20577;-68
2023/03/01 10:43:51;;;;;;;2.40;1.30;;;8.80;24.30;;;;;;5072357;28;20261;-69
2023/03/01 10:46:32;;;;;;;2.30;1.40;;;9.10;23.10;;;;;;5068973;28;20536;-69
2023/03/01 10:49:06;;;;;;;2.85;1.70;;;9.30;23.20;;;;;;5071080;28;20188;-69
2023/03/01 10:51:32;;;;;;;2.20;1.50;;;10.00;21.40;;;;;;5069796;28;20209;-69
2023/03/01 10:53:58;;;;;;;2.40;1.42;;;10.30;21.00;;;;;;5072328;28;20178;-67
2023/03/01 10:56:25;;;;;;;2.33;1.37;;;10.20;20.90;;;;;;5072294;28;20176;-66
2023/03/01 10:59:04;;;;;;;2.53;1.80;;;10.30;20.90;;;;;;5070298;28;20639;-69
2023/03/01 11:01:35;;;;;;;2.00;1.23;;;10.20;21.90;;;;;;5070300;28;20210;-70
2023/03/01 11:04:06;;;;;;;2.90;1.70;;;11.10;21.30;;;;;;5066538;28;20171;-70
2023/03/01 11:06:33;;;;;;;1.90;1.30;;;12.20;18.80;;;;;;5066425;28;20429;-71
2023/03/01 11:09:23;;;;;;;1.90;1.30;;;12.60;17.60;;;;;;5068206;28;20592;-70
2023/03/01 11:11:54;;;;;;;2.47;1.40;;;13.00;17.40;;;;;;5065109;28;20417;-70
2023/03/01 11:14:25;;;;;;;3.20;2.20;;;13.40;16.90;;;;;;5068933;28;20453;-69
2023/03/01 11:17:03;;;;;;;2.23;1.53;;;13.60;16.60;;;;;;5069806;28;20442;-71
2023/03/01 11:19:29;;;;;;;2.20;1.50;;;13.20;17.90;;;;;;5071237;28;20463;-70
2023/03/01 11:22:03;;;;;;;3.27;2.30;;;13.10;17.00;;;;;;5069035;28;20427;-70
2023/03/01 11:24:51;;;;;;;2.30;1.33;;;13.20;17.70;;;;;;5068318;28;20430;-71
2023/03/01 11:27:19;;;;;;;2.10;1.50;;;13.90;16.60;;;;;;5068090;28;20420;-69
2023/03/01 11:30:00;;;;;;;2.10;1.40;;;14.10;15.90;;;;;;5071594;28;20876;-69
2023/03/01 11:32:32;;;;;;;3.17;1.70;;;13.50;17.20;;;;;;5072125;28;20872;-69
2023/03/01 11:35:08;;;;;;;2.20;1.53;;;13.70;16.40;;;;;;5068611;28;20893;-70
2023/03/01 11:37:56;;;;;;;2.33;1.77;;;14.80;15.70;;;;;;5068312;28;20425;-69
2023/03/01 11:40:29;;;;;;;2.87;1.70;;;14.70;14.90;;;;;;5070762;28;20488;-69
2023/03/01 11:43:13;;;;;;;2.77;1.80;;;14.80;15.30;;;;;;5069330;28;20506;-69
2023/03/01 11:45:58;;;;;;;3.40;1.97;;;15.50;14.40;;;;;;5062347;28;20436;-69
2023/03/01 11:48:40;;;;;;;2.10;1.50;;;16.40;14.00;;;;;;5068906;28;20424;-70
2023/03/01 11:51:22;;;;;;;2.53;1.70;;;15.90;14.30;;;;;;5068031;28;20456;-70
2023/03/01 11:54:15;;;;;;;4.40;2.40;;;16.70;14.90;;;;;;5059802;28;20438;-69
2023/03/01 11:57:06;;;;;;;3.10;1.90;;;17.20;12.90;;;;;;5065771;28;20799;-68
2023/03/01 11:59:59;;;;;;;3.00;2.00;;;17.40;12.50;;;;;;5052628;28;20584;-70
2023/03/01 12:02:51;;;;;;;5.90;2.17;;;17.20;13.00;;;;;;5061473;28;20503;-66
2023/03/01 12:05:40;;;;;;;3.37;2.10;;;16.60;13.80;;;;;;5065443;28;20938;-66
2023/03/01 12:08:12;;;;;;;6.17;2.87;;;16.50;13.10;;;;;;5062403;28;20573;-67
2023/03/01 12:10:56;;;;;;;3.03;1.87;;;17.30;13.20;;;;;;5050554;28;20432;-67
2023/03/01 12:13:54;;;;;;;3.53;2.10;;;18.00;12.30;;;;;;5050695;28;20409;-69
2023/03/01 12:16:28;;;;;;;18.50;2.37;;;17.70;11.30;;;;;;5026797;28;20480;-67
2023/03/01 12:18:58;;;;;;;3.73;2.40;;;17.70;12.70;;;;;;5027509;28;21045;-66
2023/03/01 12:21:51;;;;;;;3.57;2.00;;;18.60;12.20;;;;;;5009605;28;20484;-67
2023/03/01 12:25:02;;;;;;;3.20;1.97;;;19.60;12.00;;;;;;5007042;28;20487;-67
2023/03/01 12:27:50;;;;;;;4.13;2.43;;;18.80;11.40;;;;;;5023673;28;20534;-67
2023/03/01 12:30:39;;;;;;;3.50;2.00;;;18.30;11.70;;;;;;5024847;28;20459;-67
2023/03/01 12:33:27;;;;;;;4.40;2.60;;;17.30;12.50;;;;;;5024599;28;20418;-68
2023/03/01 12:36:17;;;;;;;5.87;3.00;;;17.80;12.60;;;;;;5010330;28;20429;-69
2023/03/01 12:38:48;;;;;;;4.10;2.27;;;18.80;11.40;;;;;;5030438;28;20488;-70
2023/03/01 12:41:52;;;;;;;3.93;2.00;;;18.70;11.30;;;;;;5030929;28;20439;-67
2023/03/01 12:44:41;;;;;;;4.07;1.80;;;17.30;13.20;;;;;;5017443;28;20446;-66
2023/03/01 12:47:34;;;;;;;4.17;2.60;;;16.70;13.90;;;;;;5032030;28;20517;-66
2023/03/01 12:50:12;;;;;;;3.60;1.97;;;16.40;13.70;;;;;;5031986;28;20954;-67
2023/03/01 12:52:47;;;;;;;4.50;2.23;;;16.20;13.40;;;;;;5049702;28;20429;-66
2023/03/01 12:55:35;;;;;;;2.83;1.77;;;16.70;13.20;;;;;;5073412;28;20447;-67
2023/03/01 12:58:26;;;;;;;3.23;2.10;;;16.90;13.30;;;;;;5071577;28;20413;-67
2023/03/01 13:01:14;;;;;;;3.33;2.00;;;17.60;12.70;;;;;;5068692;28;20754;-65
2023/03/01 13:03:59;;;;;;;2.70;1.50;;;16.60;13.40;;;;;;5062516;28;20465;-66
2023/03/01 13:07:10;;;;;;;3.10;1.70;;;16.40;13.50;;;;;;5072140;28;20410;-65
2023/03/01 13:09:43;;;;;;;2.83;1.50;;;15.90;14.60;;;;;;5069275;28;20796;-69
2023/03/01 13:12:43;;;;;;;2.23;1.37;;;15.20;15.90;;;;;;5070418;28;20430;-66
2023/03/01 13:15:21;;;;;;;2.67;1.67;;;15.50;15.90;;;;;;5063128;28;20497;-66